sensor_id;sensor_type;location;lat;lon;timestamp;pressure;altitude;pressure_sealevel;temperature;humidity
58686;BME280;44465;53.206;-6.106;2023-04-26T00:01:28;101713.25;;;21.01;45.59
58686;BME280;44465;53.206;-6.106;2023-04-26T00:03:54;101704.69;;;20.91;45.54
58686;BME280;44465;53.206;-6.106;2023-04-26T00:06:20;101704.56;;;20.94;45.69
58686;BME280;44465;53.206;-6.106;2023-04-26T00:08:46;101709.06;;;20.94;45.48
58686;BME280;44465;53.206;-6.106;2023-04-26T00:11:11;101706.41;;;20.94;45.49
58686;BME280;44465;53.206;-6.106;2023-04-26T00:13:37;101721.53;;;20.95;45.60
58686;BME280;44465;53.206;-6.106;2023-04-26T00:16:03;101712.69;;;20.92;45.58
58686;BME280;44465;53.206;-6.106;2023-04-26T00:18:29;101719.63;;;20.97;45.59
58686;BME280;44465;53.206;-6.106;2023-04-26T00:20:56;101714.44;;;20.94;45.70
58686;BME280;44465;53.206;-6.106;2023-04-26T00:23:21;101722.38;;;20.95;45.46
58686;BME280;44465;53.206;-6.106;2023-04-26T00:25:47;101715.28;;;20.94;45.64
58686;BME280;44465;53.206;-6.106;2023-04-26T00:28:13;101706.31;;;20.95;45.84
58686;BME280;44465;53.206;-6.106;2023-04-26T00:30:38;101699.31;;;20.92;45.73
58686;BME280;44465;53.206;-6.106;2023-04-26T00:33:08;101711.69;;;20.95;45.49
58686;BME280;44465;53.206;-6.106;2023-04-26T00:35:33;101705.47;;;20.95;45.70
58686;BME280;44465;53.206;-6.106;2023-04-26T00:37:58;101704.56;;;20.94;45.61
58686;BME280;44465;53.206;-6.106;2023-04-26T00:40:24;101714.47;;;20.92;45.44
58686;BME280;44465;53.206;-6.106;2023-04-26T00:42:58;101702.84;;;20.93;45.56
58686;BME280;44465;53.206;-6.106;2023-04-26T00:45:24;101692.28;;;20.90;45.74
58686;BME280;44465;53.206;-6.106;2023-04-26T00:47:50;101693.13;;;20.90;45.81
58686;BME280;44465;53.206;-6.106;2023-04-26T00:50:15;101688.88;;;20.85;45.76
58686;BME280;44465;53.206;-6.106;2023-04-26T00:52:42;101692.31;;;20.88;45.86
58686;BME280;44465;53.206;-6.106;2023-04-26T00:55:07;101691.50;;;20.86;45.63
58686;BME280;44465;53.206;-6.106;2023-04-26T00:57:33;101688.78;;;20.88;45.80
58686;BME280;44465;53.206;-6.106;2023-04-26T00:59:59;101681.69;;;20.87;45.72
58686;BME280;44465;53.206;-6.106;2023-04-26T01:02:24;101675.38;;;20.88;45.82
58686;BME280;44465;53.206;-6.106;2023-04-26T01:04:50;101674.56;;;20.86;46.04
58686;BME280;44465;53.206;-6.106;2023-04-26T01:07:16;101664.78;;;20.85;45.88
58686;BME280;44465;53.206;-6.106;2023-04-26T01:09:42;101658.59;;;20.84;45.89
58686;BME280;44465;53.206;-6.106;2023-04-26T01:12:08;101657.63;;;20.85;45.74
58686;BME280;44465;53.206;-6.106;2023-04-26T01:14:36;101655.03;;;20.84;45.87
58686;BME280;44465;53.206;-6.106;2023-04-26T01:17:02;101654.91;;;20.87;46.07
58686;BME280;44465;53.206;-6.106;2023-04-26T01:19:27;101656.66;;;20.88;45.78
58686;BME280;44465;53.206;-6.106;2023-04-26T01:21:53;101645.25;;;20.83;45.98
58686;BME280;44465;53.206;-6.106;2023-04-26T01:24:19;101640.69;;;20.85;45.93
58686;BME280;44465;53.206;-6.106;2023-04-26T01:26:45;101642.72;;;20.80;45.92
58686;BME280;44465;53.206;-6.106;2023-04-26T01:29:17;101640.81;;;20.82;45.92
58686;BME280;44465;53.206;-6.106;2023-04-26T01:31:43;101637.22;;;20.83;45.95
58686;BME280;44465;53.206;-6.106;2023-04-26T01:34:09;101629.44;;;20.76;46.26
58686;BME280;44465;53.206;-6.106;2023-04-26T01:36:34;101633.72;;;20.81;45.84
58686;BME280;44465;53.206;-6.106;2023-04-26T01:39:00;101630.09;;;20.82;46.26
58686;BME280;44465;53.206;-6.106;2023-04-26T01:41:25;101631.00;;;20.82;46.13
58686;BME280;44465;53.206;-6.106;2023-04-26T01:43:51;101619.56;;;20.79;45.90
58686;BME280;44465;53.206;-6.106;2023-04-26T01:46:17;101619.56;;;20.79;46.19
58686;BME280;44465;53.206;-6.106;2023-04-26T01:48:43;101626.50;;;20.83;45.87
58686;BME280;44465;53.206;-6.106;2023-04-26T01:51:10;101630.09;;;20.82;46.02
58686;BME280;44465;53.206;-6.106;2023-04-26T01:53:35;101620.41;;;20.79;45.97
58686;BME280;44465;53.206;-6.106;2023-04-26T01:56:03;101616.00;;;20.78;46.27
58686;BME280;44465;53.206;-6.106;2023-04-26T01:58:30;101622.09;;;20.82;46.13
58686;BME280;44465;53.206;-6.106;2023-04-26T02:01:03;101623.00;;;20.81;45.98
58686;BME280;44465;53.206;-6.106;2023-04-26T02:03:28;101602.88;;;20.70;46.01
58686;BME280;44465;53.206;-6.106;2023-04-26T02:05:54;101615.25;;;20.74;46.28
58686;BME280;44465;53.206;-6.106;2023-04-26T02:08:20;101612.47;;;20.77;46.38
58686;BME280;44465;53.206;-6.106;2023-04-26T02:10:45;101617.00;;;20.75;46.14
58686;BME280;44465;53.206;-6.106;2023-04-26T02:13:11;101615.28;;;20.73;46.51
58686;BME280;44465;53.206;-6.106;2023-04-26T02:15:36;101610.91;;;20.70;46.23
58686;BME280;44465;53.206;-6.106;2023-04-26T02:18:02;101612.66;;;20.71;46.11
58686;BME280;44465;53.206;-6.106;2023-04-26T02:20:27;101616.06;;;20.76;46.17
58686;BME280;44465;53.206;-6.106;2023-04-26T02:22:53;101615.13;;;20.77;46.31
58686;BME280;44465;53.206;-6.106;2023-04-26T02:25:18;101610.72;;;20.76;46.29
58686;BME280;44465;53.206;-6.106;2023-04-26T02:27:44;101611.56;;;20.77;46.27
58686;BME280;44465;53.206;-6.106;2023-04-26T02:30:09;101601.78;;;20.76;46.23
58686;BME280;44465;53.206;-6.106;2023-04-26T02:32:35;101600.09;;;20.73;46.42
58686;BME280;44465;53.206;-6.106;2023-04-26T02:35:01;101598.34;;;20.72;46.11
58686;BME280;44465;53.206;-6.106;2023-04-26T02:37:26;101607.16;;;20.76;46.21
58686;BME280;44465;53.206;-6.106;2023-04-26T02:39:52;101603.63;;;20.75;46.45
58686;BME280;44465;53.206;-6.106;2023-04-26T02:42:17;101604.53;;;20.74;46.37
58686;BME280;44465;53.206;-6.106;2023-04-26T02:44:43;101601.88;;;20.74;46.44
58686;BME280;44465;53.206;-6.106;2023-04-26T02:47:09;101591.31;;;20.70;46.31
58686;BME280;44465;53.206;-6.106;2023-04-26T02:49:34;101594.84;;;20.70;46.52
58686;BME280;44465;53.206;-6.106;2023-04-26T02:52:00;101596.59;;;20.71;46.43
58686;BME280;44465;53.206;-6.106;2023-04-26T02:54:26;101589.50;;;20.70;46.45
58686;BME280;44465;53.206;-6.106;2023-04-26T02:56:52;101582.47;;;20.68;46.23
58686;BME280;44465;53.206;-6.106;2023-04-26T02:59:20;101585.03;;;20.71;46.37
58686;BME280;44465;53.206;-6.106;2023-04-26T03:01:46;101577.88;;;20.71;46.44
58686;BME280;44465;53.206;-6.106;2023-04-26T03:04:11;101576.06;;;20.72;46.41
58686;BME280;44465;53.206;-6.106;2023-04-26T03:06:37;101575.13;;;20.73;46.58
58686;BME280;44465;53.206;-6.106;2023-04-26T03:09:03;101571.66;;;20.71;46.63
58686;BME280;44465;53.206;-6.106;2023-04-26T03:11:30;101574.31;;;20.71;46.54
58686;BME280;44465;53.206;-6.106;2023-04-26T03:13:56;101571.84;;;20.66;46.52
58686;BME280;44465;53.206;-6.106;2023-04-26T03:16:22;101563.81;;;20.66;46.40
58686;BME280;44465;53.206;-6.106;2023-04-26T03:18:48;101569.06;;;20.69;46.65
58686;BME280;44465;53.206;-6.106;2023-04-26T03:21:13;101565.47;;;20.69;46.42
58686;BME280;44465;53.206;-6.106;2023-04-26T03:23:39;101564.63;;;20.68;46.57
58686;BME280;44465;53.206;-6.106;2023-04-26T03:26:05;101559.31;;;20.67;46.62
58686;BME280;44465;53.206;-6.106;2023-04-26T03:28:31;101552.31;;;20.64;46.49
58686;BME280;44465;53.206;-6.106;2023-04-26T03:30:56;101555.72;;;20.68;46.87
58686;BME280;44465;53.206;-6.106;2023-04-26T03:33:22;101554.84;;;20.67;46.60
58686;BME280;44465;53.206;-6.106;2023-04-26T03:35:48;101555.78;;;20.66;46.63
58686;BME280;44465;53.206;-6.106;2023-04-26T03:38:13;101556.59;;;20.68;46.70
58686;BME280;44465;53.206;-6.106;2023-04-26T03:40:39;101542.59;;;20.61;46.47
58686;BME280;44465;53.206;-6.106;2023-04-26T03:43:04;101551.38;;;20.65;46.35
58686;BME280;44465;53.206;-6.106;2023-04-26T03:45:30;101541.59;;;20.64;46.57
58686;BME280;44465;53.206;-6.106;2023-04-26T03:47:55;101555.66;;;20.69;46.57
58686;BME280;44465;53.206;-6.106;2023-04-26T03:50:21;101549.50;;;20.67;46.60
58686;BME280;44465;53.206;-6.106;2023-04-26T03:52:46;101549.50;;;20.67;46.68
58686;BME280;44465;53.206;-6.106;2023-04-26T03:55:12;101556.59;;;20.68;46.78
58686;BME280;44465;53.206;-6.106;2023-04-26T03:57:38;101555.66;;;20.69;46.50
58686;BME280;44465;53.206;-6.106;2023-04-26T04:00:04;101551.25;;;20.68;46.61
58686;BME280;44465;53.206;-6.106;2023-04-26T04:02:41;101545.19;;;20.63;46.87
58686;BME280;44465;53.206;-6.106;2023-04-26T04:05:07;101538.00;;;20.65;46.56
58686;BME280;44465;53.206;-6.106;2023-04-26T04:07:33;101530.22;;;20.59;46.82
58686;BME280;44465;53.206;-6.106;2023-04-26T04:09:59;101539.72;;;20.66;46.67
58686;BME280;44465;53.206;-6.106;2023-04-26T04:12:25;101531.81;;;20.63;46.82
58686;BME280;44465;53.206;-6.106;2023-04-26T04:14:51;101536.25;;;20.64;46.70
58686;BME280;44465;53.206;-6.106;2023-04-26T04:17:20;101529.03;;;20.66;46.83
58686;BME280;44465;53.206;-6.106;2023-04-26T04:19:45;101521.03;;;20.65;46.49
58686;BME280;44465;53.206;-6.106;2023-04-26T04:22:11;101526.34;;;20.66;46.74
58686;BME280;44465;53.206;-6.106;2023-04-26T04:24:37;101526.34;;;20.66;46.49
58686;BME280;44465;53.206;-6.106;2023-04-26T04:27:03;101523.72;;;20.65;46.55
58686;BME280;44465;53.206;-6.106;2023-04-26T04:29:28;101523.78;;;20.63;46.74
58686;BME280;44465;53.206;-6.106;2023-04-26T04:31:54;101525.41;;;20.67;46.84
58686;BME280;44465;53.206;-6.106;2023-04-26T04:34:21;101520.19;;;20.64;46.59
58686;BME280;44465;53.206;-6.106;2023-04-26T04:36:48;101525.47;;;20.66;46.81
58686;BME280;44465;53.206;-6.106;2023-04-26T04:39:15;101523.72;;;20.65;46.64
58686;BME280;44465;53.206;-6.106;2023-04-26T04:41:42;101516.69;;;20.62;46.87
58686;BME280;44465;53.206;-6.106;2023-04-26T04:44:16;101526.47;;;20.63;47.03
58686;BME280;44465;53.206;-6.106;2023-04-26T04:46:43;101511.41;;;20.60;46.88
58686;BME280;44465;53.206;-6.106;2023-04-26T04:49:10;101510.59;;;20.58;47.00
58686;BME280;44465;53.206;-6.106;2023-04-26T04:51:37;101524.72;;;20.62;46.88
58686;BME280;44465;53.206;-6.106;2023-04-26T04:54:13;101506.25;;;20.56;47.14
58686;BME280;44465;53.206;-6.106;2023-04-26T04:56:39;101511.50;;;20.59;46.90
58686;BME280;44465;53.206;-6.106;2023-04-26T04:59:04;101511.50;;;20.59;46.77
58686;BME280;44465;53.206;-6.106;2023-04-26T05:01:31;101530.81;;;20.66;46.68
58686;BME280;44465;53.206;-6.106;2023-04-26T05:03:59;101514.03;;;20.62;46.83
58686;BME280;44465;53.206;-6.106;2023-04-26T05:06:27;101514.91;;;20.63;46.73
58686;BME280;44465;53.206;-6.106;2023-04-26T05:08:53;101524.59;;;20.65;46.79
58686;BME280;44465;53.206;-6.106;2023-04-26T05:11:19;101523.66;;;20.66;46.88
58686;BME280;44465;53.206;-6.106;2023-04-26T05:13:45;101528.13;;;20.66;46.60
58686;BME280;44465;53.206;-6.106;2023-04-26T05:16:11;101522.75;;;20.67;46.71
58686;BME280;44465;53.206;-6.106;2023-04-26T05:18:37;101519.25;;;20.65;46.52
58686;BME280;44465;53.206;-6.106;2023-04-26T05:21:03;101520.25;;;20.63;46.88
58686;BME280;44465;53.206;-6.106;2023-04-26T05:23:29;101522.03;;;20.62;46.70
58686;BME280;44465;53.206;-6.106;2023-04-26T05:25:55;101521.19;;;20.61;46.92
58686;BME280;44465;53.206;-6.106;2023-04-26T05:28:43;101525.53;;;20.64;46.95
58686;BME280;44465;53.206;-6.106;2023-04-26T05:31:21;101530.03;;;20.64;46.84
58686;BME280;44465;53.206;-6.106;2023-04-26T05:34:16;101528.34;;;20.61;46.95
58686;BME280;44465;53.206;-6.106;2023-04-26T05:36:45;101516.84;;;20.59;46.71
58686;BME280;44465;53.206;-6.106;2023-04-26T05:39:11;101523.78;;;20.63;46.82
58686;BME280;44465;53.206;-6.106;2023-04-26T05:41:37;101532.63;;;20.65;46.78
58686;BME280;44465;53.206;-6.106;2023-04-26T05:44:02;101530.97;;;20.63;46.85
58686;BME280;44465;53.206;-6.106;2023-04-26T05:46:28;101530.88;;;20.64;46.89
58686;BME280;44465;53.206;-6.106;2023-04-26T05:48:54;101533.56;;;20.64;46.68
58686;BME280;44465;53.206;-6.106;2023-04-26T05:51:20;101534.38;;;20.66;46.87
58686;BME280;44465;53.206;-6.106;2023-04-26T05:53:45;101530.16;;;20.60;46.90
58686;BME280;44465;53.206;-6.106;2023-04-26T05:56:12;101533.63;;;20.63;46.88
58686;BME280;44465;53.206;-6.106;2023-04-26T05:58:38;101536.97;;;20.68;46.85
58686;BME280;44465;53.206;-6.106;2023-04-26T06:01:03;101529.16;;;20.63;46.58
58686;BME280;44465;53.206;-6.106;2023-04-26T06:03:29;101538.78;;;20.67;46.65
58686;BME280;44465;53.206;-6.106;2023-04-26T06:05:55;101530.78;;;20.67;46.81
58686;BME280;44465;53.206;-6.106;2023-04-26T06:08:21;101536.13;;;20.67;46.81
58686;BME280;44465;53.206;-6.106;2023-04-26T06:10:48;101534.50;;;20.63;46.64
58686;BME280;44465;53.206;-6.106;2023-04-26T06:13:13;101530.22;;;20.59;46.86
58686;BME280;44465;53.206;-6.106;2023-04-26T06:15:39;101522.19;;;20.59;46.80
58686;BME280;44465;53.206;-6.106;2023-04-26T06:18:04;101532.75;;;20.62;46.77
58686;BME280;44465;53.206;-6.106;2023-04-26T06:20:31;101532.56;;;20.67;46.78
58686;BME280;44465;53.206;-6.106;2023-04-26T06:22:57;101531.69;;;20.66;46.80
58686;BME280;44465;53.206;-6.106;2023-04-26T06:25:22;101537.06;;;20.66;46.92
58686;BME280;44465;53.206;-6.106;2023-04-26T06:27:48;101533.38;;;20.69;46.70
58686;BME280;44465;53.206;-6.106;2023-04-26T06:30:13;101527.16;;;20.68;46.84
58686;BME280;44465;53.206;-6.106;2023-04-26T06:32:43;101528.91;;;20.69;46.67
58686;BME280;44465;53.206;-6.106;2023-04-26T06:35:08;101532.56;;;20.67;46.80
58686;BME280;44465;53.206;-6.106;2023-04-26T06:37:36;101538.59;;;20.72;46.80
58686;BME280;44465;53.206;-6.106;2023-04-26T06:40:02;101528.09;;;20.67;46.81
58686;BME280;44465;53.206;-6.106;2023-04-26T06:42:28;101528.91;;;20.69;46.75
58686;BME280;44465;53.206;-6.106;2023-04-26T06:45:29;101533.28;;;20.70;46.83
58686;BME280;44465;53.206;-6.106;2023-04-26T06:47:56;101517.59;;;20.63;46.66
58686;BME280;44465;53.206;-6.106;2023-04-26T06:50:23;101530.81;;;20.66;46.79
58686;BME280;44465;53.206;-6.106;2023-04-26T06:52:48;101534.25;;;20.69;46.68
58686;BME280;44465;53.206;-6.106;2023-04-26T06:55:14;101536.97;;;20.68;46.77
58686;BME280;44465;53.206;-6.106;2023-04-26T06:57:40;101532.50;;;20.68;46.75
58686;BME280;44465;53.206;-6.106;2023-04-26T07:00:06;101543.97;;;20.72;46.58
58686;BME280;44465;53.206;-6.106;2023-04-26T07:02:31;101541.41;;;20.69;46.86
58686;BME280;44465;53.206;-6.106;2023-04-26T07:04:57;101550.16;;;20.72;46.77
58686;BME280;44465;53.206;-6.106;2023-04-26T07:07:22;101546.56;;;20.73;46.74
58686;BME280;44465;53.206;-6.106;2023-04-26T07:09:48;101546.63;;;20.72;46.82
58686;BME280;44465;53.206;-6.106;2023-04-26T07:12:13;101549.16;;;20.76;46.68
58686;BME280;44465;53.206;-6.106;2023-04-26T07:14:39;101548.34;;;20.74;46.81
58686;BME280;44465;53.206;-6.106;2023-04-26T07:17:09;101549.06;;;20.78;46.86
58686;BME280;44465;53.206;-6.106;2023-04-26T07:19:35;101546.34;;;20.80;47.17
58686;BME280;44465;53.206;-6.106;2023-04-26T07:22:00;101555.31;;;20.79;47.34
58686;BME280;44465;53.206;-6.106;2023-04-26T07:24:26;101551.69;;;20.80;47.06
58686;BME280;44465;53.206;-6.106;2023-04-26T07:26:51;101548.06;;;20.81;47.11
58686;BME280;44465;53.206;-6.106;2023-04-26T07:29:17;101547.19;;;20.80;47.14
58686;BME280;44465;53.206;-6.106;2023-04-26T07:31:43;101542.88;;;20.77;47.13
58686;BME280;44465;53.206;-6.106;2023-04-26T07:34:09;101548.13;;;20.79;47.06
58686;BME280;44465;53.206;-6.106;2023-04-26T07:36:34;101559.53;;;20.84;47.10
58686;BME280;44465;53.206;-6.106;2023-04-26T07:39:00;101552.63;;;20.79;46.98
58686;BME280;44465;53.206;-6.106;2023-04-26T07:41:25;101544.59;;;20.79;46.70
58686;BME280;44465;53.206;-6.106;2023-04-26T07:43:51;101548.06;;;20.81;46.85
58686;BME280;44465;53.206;-6.106;2023-04-26T07:46:16;101509.59;;;20.61;47.30
58686;BME280;44465;53.206;-6.106;2023-04-26T07:48:42;101543.72;;;20.78;47.43
58686;BME280;44465;53.206;-6.106;2023-04-26T07:51:11;101543.84;;;20.75;47.57
58686;BME280;44465;53.206;-6.106;2023-04-26T07:53:38;101542.88;;;20.77;47.56
58686;BME280;44465;53.206;-6.106;2023-04-26T07:56:05;101544.59;;;20.79;47.63
58686;BME280;44465;53.206;-6.106;2023-04-26T07:58:32;101544.00;;;20.70;47.36
58686;BME280;44465;53.206;-6.106;2023-04-26T08:00:58;101546.47;;;20.76;47.73
58686;BME280;44465;53.206;-6.106;2023-04-26T08:03:23;101551.75;;;20.78;47.66
58686;BME280;44465;53.206;-6.106;2023-04-26T08:05:49;101542.03;;;20.75;47.38
58686;BME280;44465;53.206;-6.106;2023-04-26T08:08:14;101539.63;;;20.69;44.05
58686;BME280;44465;53.206;-6.106;2023-04-26T08:10:40;101542.22;;;20.26;42.25
58686;BME280;44465;53.206;-6.106;2023-04-26T08:13:06;101543.72;;;20.11;40.84
58686;BME280;44465;53.206;-6.106;2023-04-26T08:15:31;101540.09;;;19.90;41.44
58686;BME280;44465;53.206;-6.106;2023-04-26T08:17:57;101545.63;;;19.86;40.33
58686;BME280;44465;53.206;-6.106;2023-04-26T08:20:23;101542.31;;;19.77;40.89
58686;BME280;44465;53.206;-6.106;2023-04-26T08:22:48;101547.97;;;19.69;40.55
58686;BME280;44465;53.206;-6.106;2023-04-26T08:25:14;101548.16;;;19.65;40.60
58686;BME280;44465;53.206;-6.106;2023-04-26T08:27:40;101531.94;;;19.46;39.44
58686;BME280;44465;53.206;-6.106;2023-04-26T08:30:06;101549.28;;;19.34;39.92
58686;BME280;44465;53.206;-6.106;2023-04-26T08:32:31;101551.00;;;19.35;40.31
58686;BME280;44465;53.206;-6.106;2023-04-26T08:34:59;101557.28;;;19.34;40.47
58686;BME280;44465;53.206;-6.106;2023-04-26T08:37:25;101549.59;;;19.25;40.22
58686;BME280;44465;53.206;-6.106;2023-04-26T08:39:50;101557.50;;;19.28;40.33
58686;BME280;44465;53.206;-6.106;2023-04-26T08:42:16;101552.59;;;19.15;39.84
58686;BME280;44465;53.206;-6.106;2023-04-26T08:44:43;101545.63;;;19.11;40.02
58686;BME280;44465;53.206;-6.106;2023-04-26T08:47:27;101547.47;;;19.09;40.15
58686;BME280;44465;53.206;-6.106;2023-04-26T08:49:57;101544.22;;;19.01;40.30
58686;BME280;44465;53.206;-6.106;2023-04-26T08:52:27;101549.41;;;19.04;40.62
58686;BME280;44465;53.206;-6.106;2023-04-26T08:54:53;101548.66;;;19.00;40.97
58686;BME280;44465;53.206;-6.106;2023-04-26T08:57:21;101550.66;;;18.94;40.86
58686;BME280;44465;53.206;-6.106;2023-04-26T08:59:48;101542.94;;;18.84;41.13
58686;BME280;44465;53.206;-6.106;2023-04-26T09:02:19;101541.84;;;18.91;41.07
58686;BME280;44465;53.206;-6.106;2023-04-26T09:04:46;101541.09;;;18.86;40.75
58686;BME280;44465;53.206;-6.106;2023-04-26T09:07:20;101546.53;;;18.83;40.92
58686;BME280;44465;53.206;-6.106;2023-04-26T09:09:49;101552.09;;;18.77;41.10
58686;BME280;44465;53.206;-6.106;2023-04-26T09:12:19;101553.63;;;18.84;40.67
58686;BME280;44465;53.206;-6.106;2023-04-26T09:14:45;101554.66;;;18.80;41.04
58686;BME280;44465;53.206;-6.106;2023-04-26T09:17:34;101556.50;;;18.78;41.09
58686;BME280;44465;53.206;-6.106;2023-04-26T09:20:25;101554.69;;;18.79;41.11
58686;BME280;44465;53.206;-6.106;2023-04-26T09:23:06;101541.50;;;18.74;41.32
58686;BME280;44465;53.206;-6.106;2023-04-26T09:25:32;101554.84;;;18.74;40.84
58686;BME280;44465;53.206;-6.106;2023-04-26T09:27:59;101558.56;;;18.70;41.07
58686;BME280;44465;53.206;-6.106;2023-04-26T09:30:25;101558.41;;;18.74;41.40
58686;BME280;44465;53.206;-6.106;2023-04-26T09:32:54;101562.25;;;18.66;41.17
58686;BME280;44465;53.206;-6.106;2023-04-26T09:35:24;101568.41;;;18.68;41.09
58686;BME280;44465;53.206;-6.106;2023-04-26T09:38:04;101555.13;;;18.66;41.01
58686;BME280;44465;53.206;-6.106;2023-04-26T09:40:33;101569.56;;;18.60;41.02
58686;BME280;44465;53.206;-6.106;2023-04-26T09:43:09;101565.00;;;18.63;41.58
58686;BME280;44465;53.206;-6.106;2023-04-26T09:48:24;101558.22;;;18.52;41.85
58686;BME280;44465;53.206;-6.106;2023-04-26T09:50:52;101563.22;;;18.63;42.15
58686;BME280;44465;53.206;-6.106;2023-04-26T09:55:55;101560.81;;;18.55;41.50
58686;BME280;44465;53.206;-6.106;2023-04-26T09:58:21;101557.28;;;18.55;41.78
58686;BME280;44465;53.206;-6.106;2023-04-26T10:00:50;101570.78;;;18.50;41.31
58686;BME280;44465;53.206;-6.106;2023-04-26T10:03:18;101571.16;;;18.66;41.33
58686;BME280;44465;53.206;-6.106;2023-04-26T10:05:44;101574.34;;;18.78;42.30
58686;BME280;44465;53.206;-6.106;2023-04-26T10:08:10;101572.16;;;18.89;42.37
58686;BME280;44465;53.206;-6.106;2023-04-26T10:10:36;101575.34;;;19.00;42.94
58686;BME280;44465;53.206;-6.106;2023-04-26T10:13:04;101574.06;;;19.12;42.95
58686;BME280;44465;53.206;-6.106;2023-04-26T10:15:30;101567.97;;;19.09;43.58
58686;BME280;44465;53.206;-6.106;2023-04-26T10:17:56;101570.25;;;19.19;43.39
58686;BME280;44465;53.206;-6.106;2023-04-26T10:20:23;101564.81;;;19.22;43.62
58686;BME280;44465;53.206;-6.106;2023-04-26T10:22:52;101556.75;;;19.24;44.00
58686;BME280;44465;53.206;-6.106;2023-04-26T10:25:19;101562.50;;;19.37;44.38
58686;BME280;44465;53.206;-6.106;2023-04-26T10:27:46;101550.69;;;19.44;44.20
58686;BME280;44465;53.206;-6.106;2023-04-26T10:30:16;101551.66;;;19.42;44.06
58686;BME280;44465;53.206;-6.106;2023-04-26T10:35:31;101539.88;;;19.47;44.63
58686;BME280;44465;53.206;-6.106;2023-04-26T10:40:36;101548.72;;;19.49;45.04
58686;BME280;44465;53.206;-6.106;2023-04-26T10:45:42;101531.41;;;19.60;45.22
58686;BME280;44465;53.206;-6.106;2023-04-26T10:53:24;101547.56;;;19.80;45.55
58686;BME280;44465;53.206;-6.106;2023-04-26T10:55:50;101531.75;;;19.74;45.36
58686;BME280;44465;53.206;-6.106;2023-04-26T10:58:39;101536.13;;;19.77;45.01
58686;BME280;44465;53.206;-6.106;2023-04-26T11:01:05;101540.94;;;19.43;42.45
58686;BME280;44465;53.206;-6.106;2023-04-26T11:03:31;101542.38;;;19.28;42.08
58686;BME280;44465;53.206;-6.106;2023-04-26T11:05:57;101550.16;;;19.09;42.08
58686;BME280;44465;53.206;-6.106;2023-04-26T11:13:22;101543.78;;;19.13;42.65
58686;BME280;44465;53.206;-6.106;2023-04-26T11:15:58;101547.47;;;19.09;41.86
58686;BME280;44465;53.206;-6.106;2023-04-26T11:18:24;101551.97;;;19.09;41.73
58686;BME280;44465;53.206;-6.106;2023-04-26T11:20:50;101550.56;;;18.97;41.76
58686;BME280;44465;53.206;-6.106;2023-04-26T11:23:17;101544.47;;;18.93;42.00
58686;BME280;44465;53.206;-6.106;2023-04-26T11:25:43;101546.44;;;18.86;41.33
58686;BME280;44465;53.206;-6.106;2023-04-26T11:28:09;101548.19;;;18.87;41.71
58686;BME280;44465;53.206;-6.106;2023-04-26T11:30:34;101548.19;;;18.87;41.25
58686;BME280;44465;53.206;-6.106;2023-04-26T11:33:01;101541.00;;;18.89;41.54
58686;BME280;44465;53.206;-6.106;2023-04-26T11:35:28;101551.50;;;18.96;42.33
58686;BME280;44465;53.206;-6.106;2023-04-26T11:37:58;101545.81;;;19.05;42.42
58686;BME280;44465;53.206;-6.106;2023-04-26T11:40:29;101551.34;;;19.00;41.70
58686;BME280;44465;53.206;-6.106;2023-04-26T11:43:05;101555.91;;;18.70;41.28
58686;BME280;44465;53.206;-6.106;2023-04-26T11:45:32;101556.88;;;18.67;41.47
58686;BME280;44465;53.206;-6.106;2023-04-26T11:48:00;101559.66;;;18.64;41.23
58686;BME280;44465;53.206;-6.106;2023-04-26T11:50:26;101565.13;;;18.59;41.31
58686;BME280;44465;53.206;-6.106;2023-04-26T11:52:56;101555.53;;;18.54;41.03
58686;BME280;44465;53.206;-6.106;2023-04-26T11:55:29;101565.84;;;18.65;40.96
58686;BME280;44465;53.206;-6.106;2023-04-26T11:57:58;101566.88;;;18.60;41.36
58686;BME280;44465;53.206;-6.106;2023-04-26T12:00:25;101567.84;;;18.58;41.33
58686;BME280;44465;53.206;-6.106;2023-04-26T12:02:51;101566.97;;;18.57;41.25
58686;BME280;44465;53.206;-6.106;2023-04-26T12:05:27;101559.88;;;18.56;41.05
58686;BME280;44465;53.206;-6.106;2023-04-26T12:07:58;101575.81;;;18.59;40.98
58686;BME280;44465;53.206;-6.106;2023-04-26T12:10:30;101568.72;;;18.58;41.03
58686;BME280;44465;53.206;-6.106;2023-04-26T12:12:58;101566.16;;;18.55;40.99
58686;BME280;44465;53.206;-6.106;2023-04-26T12:15:33;101556.00;;;18.67;41.38
58686;BME280;44465;53.206;-6.106;2023-04-26T12:20:34;101575.03;;;18.83;41.22
58686;BME280;44465;53.206;-6.106;2023-04-26T12:25:26;101567.19;;;18.78;41.01
58686;BME280;44465;53.206;-6.106;2023-04-26T12:27:52;101578.47;;;18.86;41.04
58686;BME280;44465;53.206;-6.106;2023-04-26T12:30:18;101581.22;;;18.83;40.73
58686;BME280;44465;53.206;-6.106;2023-04-26T12:32:43;101569.75;;;18.81;40.45
58686;BME280;44465;53.206;-6.106;2023-04-26T12:35:09;101586.16;;;18.69;40.26
58686;BME280;44465;53.206;-6.106;2023-04-26T12:37:34;101586.31;;;18.64;40.53
58686;BME280;44465;53.206;-6.106;2023-04-26T12:40:00;101581.13;;;18.59;40.44
58686;BME280;44465;53.206;-6.106;2023-04-26T12:42:25;101572.09;;;18.64;40.49
58686;BME280;44465;53.206;-6.106;2023-04-26T12:44:51;101568.72;;;18.58;40.66
58686;BME280;44465;53.206;-6.106;2023-04-26T12:47:17;101580.06;;;18.65;40.70
58686;BME280;44465;53.206;-6.106;2023-04-26T12:49:42;101569.69;;;18.56;40.46
58686;BME280;44465;53.206;-6.106;2023-04-26T12:52:08;101576.81;;;18.55;40.57
58686;BME280;44465;53.206;-6.106;2023-04-26T12:54:33;101573.63;;;18.44;40.25
58686;BME280;44465;53.206;-6.106;2023-04-26T12:56:59;101585.03;;;18.49;40.42
58686;BME280;44465;53.206;-6.106;2023-04-26T12:59:25;101565.72;;;18.41;40.55
58686;BME280;44465;53.206;-6.106;2023-04-26T13:01:50;101585.13;;;18.46;40.46
58686;BME280;44465;53.206;-6.106;2023-04-26T13:04:15;101587.69;;;18.49;40.67
58686;BME280;44465;53.206;-6.106;2023-04-26T13:06:41;101585.19;;;18.44;40.42
58686;BME280;44465;53.206;-6.106;2023-04-26T13:09:06;101592.09;;;18.50;40.27